Bochem Mumbai — VRHJ8 — position and weather

sailwx.info

Track history (hours):
 
Tides and Currents Weather Stations Pressure Air Temp Water Temp Dewpoint Dewpoint Depression Visibility Wind Speed Wind Dir Waves Ship Positions

Bochem Mumbai

Last reported at 2017-Jan-22 07:33 UTC. Time now 2017-Jan-22 08:10 UTC.
Position N 49°56' W 002°16'.

Length 171 m; draft 9.2 m.

Type: Tanker. MMSI: 477932400.

Date/timePositionNaut miles runAvg speedWind from/ knotsBaromVisibWave heightAir tempDewpointWater temp
2017-Jan-22 07:33N 49°56' W 002°16'1511.6
2017-Jan-22 06:17N 49°52' W 002°39'912.1
2017-Jan-22 05:33N 49°50' W 002°52'1212.4
2017-Jan-22 04:33N 49°46' W 003°10'10512.8
2017-Jan-21 20:20N 48°51' W 005°27'61612.4
2017-Jan-19 18:33N 39°06' W 009°57'1312.7
2017-Jan-19 17:33N 38°54' W 009°57'1212.3
2017-Jan-19 16:33N 38°41' W 009°57'1212.4
2017-Jan-19 15:33N 38°29' W 009°53'1312.6
2017-Jan-19 14:33N 38°17' W 009°49'23911.2
2017-Jan-18 17:08N 35°58' W 005°45'813.8
2017-Jan-18 16:33N 35°58' W 005°35'1110.6
2017-Jan-18 15:33N 36°04' W 005°24'6 0.3
2017-Jan-17 18:32N 36°09' W 005°24'6 6.0
2017-Jan-17 17:33N 36°04' W 005°22'5 5.0
2017-Jan-17 16:32N 35°59' W 005°24'1212.1
2017-Jan-17 15:32N 35°55' W 005°38'1311.7
2017-Jan-17 14:26N 35°55' W 005°54'  
Track history (hours):
 
Tides and Currents Weather Stations Pressure Air Temp Water Temp Dewpoint Dewpoint Depression Visibility Wind Speed Wind Dir Waves Ship Positions

Bochem Mumbai

Last reported at 2017-Jan-22 07:33 UTC. Time now 2017-Jan-22 08:10 UTC.
Position N 49°56' W 002°16'.

Length 171 m; draft 9.2 m.

Type: Tanker. MMSI: 477932400.

Date/timePositionNaut miles runAvg speedWind from/ knotsBaromVisibWave heightAir tempDewpointWater temp
2017-Jan-22 07:33N 49°56' W 002°16'1511.6
2017-Jan-22 06:17N 49°52' W 002°39'912.1
2017-Jan-22 05:33N 49°50' W 002°52'1212.4
2017-Jan-22 04:33N 49°46' W 003°10'10512.8
2017-Jan-21 20:20N 48°51' W 005°27'61612.4
2017-Jan-19 18:33N 39°06' W 009°57'1312.7
2017-Jan-19 17:33N 38°54' W 009°57'1212.3
2017-Jan-19 16:33N 38°41' W 009°57'1212.4
2017-Jan-19 15:33N 38°29' W 009°53'1312.6
2017-Jan-19 14:33N 38°17' W 009°49'23911.2
2017-Jan-18 17:08N 35°58' W 005°45'813.8
2017-Jan-18 16:33N 35°58' W 005°35'1110.6
2017-Jan-18 15:33N 36°04' W 005°24'6 0.3
2017-Jan-17 18:32N 36°09' W 005°24'6 6.0
2017-Jan-17 17:33N 36°04' W 005°22'5 5.0
2017-Jan-17 16:32N 35°59' W 005°24'1212.1
2017-Jan-17 15:32N 35°55' W 005°38'1311.7
2017-Jan-17 14:26N 35°55' W 005°54'  

Dump ship's entire track history